createdAt,value
2023-04-21T00:01:29.772Z,14.11
2023-04-21T00:03:56.890Z,14.11
2023-04-21T00:06:24.000Z,14.12
2023-04-21T00:08:51.027Z,14.11
2023-04-21T00:11:18.434Z,14.11
2023-04-21T00:13:45.786Z,14.12
2023-04-21T00:16:14.043Z,14.11
2023-04-21T00:18:41.260Z,14.11
2023-04-21T00:21:08.173Z,14.07
2023-04-21T00:23:35.215Z,14.05
2023-04-21T00:26:02.816Z,14.05
2023-04-21T00:28:30.264Z,14.07
2023-04-21T00:30:57.213Z,14.08
2023-04-21T00:33:26.491Z,14.10
2023-04-21T00:35:54.429Z,14.08
2023-04-21T00:38:21.362Z,14.08
2023-04-21T00:40:48.300Z,14.09
2023-04-21T00:43:15.238Z,14.08
2023-04-21T00:45:45.257Z,14.05
2023-04-21T00:48:12.258Z,14.04
2023-04-21T00:50:41.193Z,14.03
2023-04-21T00:53:09.570Z,14.00
2023-04-21T00:55:36.894Z,13.94
2023-04-21T00:58:04.165Z,13.91
2023-04-21T01:00:31.626Z,13.90
2023-04-21T01:03:01.545Z,13.88
2023-04-21T01:05:28.583Z,13.87
2023-04-21T01:07:56.931Z,13.86
2023-04-21T01:10:24.124Z,13.85
2023-04-21T01:12:51.046Z,13.85
2023-04-21T01:15:18.127Z,13.82
2023-04-21T01:17:45.429Z,13.78
2023-04-21T01:20:15.241Z,13.77
2023-04-21T01:22:44.885Z,13.75
2023-04-21T01:25:11.871Z,13.74
2023-04-21T01:27:38.777Z,13.68
2023-04-21T01:30:09.890Z,13.64
2023-04-21T01:32:37.078Z,13.60
2023-04-21T01:35:06.438Z,13.60
2023-04-21T01:37:34.201Z,13.60
2023-04-21T01:40:07.203Z,13.54
2023-04-21T01:42:36.648Z,13.54
2023-04-21T01:45:04.600Z,13.50
2023-04-21T01:47:32.052Z,13.50
2023-04-21T01:50:00.218Z,13.48
2023-04-21T01:52:27.210Z,13.48
2023-04-21T01:54:54.942Z,13.48
2023-04-21T01:57:23.222Z,13.43
2023-04-21T01:59:50.145Z,13.43
2023-04-21T02:02:17.065Z,13.40
2023-04-21T02:04:44.003Z,13.40
2023-04-21T02:07:10.855Z,13.42
2023-04-21T02:09:37.727Z,13.38
2023-04-21T02:12:05.433Z,13.38
2023-04-21T02:14:33.715Z,13.36
2023-04-21T02:17:03.303Z,13.35
2023-04-21T02:19:30.612Z,13.35
2023-04-21T02:21:57.472Z,13.34
2023-04-21T02:24:24.447Z,13.34
2023-04-21T02:26:51.428Z,13.34
2023-04-21T02:29:18.578Z,13.32
2023-04-21T02:31:57.892Z,13.32
2023-04-21T02:34:30.125Z,13.30
2023-04-21T02:36:57.048Z,13.31
2023-04-21T02:39:23.939Z,13.29
2023-04-21T02:41:50.871Z,13.30
2023-04-21T02:44:17.982Z,13.32
2023-04-21T02:46:46.294Z,13.32
2023-04-21T02:49:13.433Z,13.30
2023-04-21T02:51:40.540Z,13.30
2023-04-21T02:54:07.510Z,13.30
2023-04-21T02:56:34.656Z,13.28
2023-04-21T02:59:01.612Z,13.29
2023-04-21T03:01:28.492Z,13.31
2023-04-21T03:03:56.911Z,13.30
2023-04-21T03:06:24.126Z,13.28
2023-04-21T03:08:52.043Z,13.26
2023-04-21T03:11:18.935Z,13.28
2023-04-21T03:13:46.031Z,13.31
2023-04-21T03:16:13.448Z,13.34
2023-04-21T03:18:40.527Z,13.33
2023-04-21T03:21:08.723Z,13.35
2023-04-21T03:23:35.697Z,13.33
2023-04-21T03:26:07.165Z,13.32
2023-04-21T03:28:34.188Z,13.30
2023-04-21T03:31:01.113Z,13.28
2023-04-21T03:33:28.095Z,13.27
2023-04-21T03:35:54.957Z,13.28
2023-04-21T03:38:23.148Z,13.26
2023-04-21T03:40:51.017Z,13.27
2023-04-21T03:43:18.013Z,13.30
2023-04-21T03:45:44.973Z,13.30
2023-04-21T03:48:12.015Z,13.30
2023-04-21T03:50:39.169Z,13.32
2023-04-21T03:53:06.096Z,13.32
2023-04-21T03:55:34.282Z,13.35
2023-04-21T03:58:01.130Z,13.34
2023-04-21T04:00:28.007Z,13.36
2023-04-21T04:02:55.069Z,13.35
2023-04-21T04:05:22.354Z,13.38
2023-04-21T04:07:49.314Z,13.36
2023-04-21T04:10:16.326Z,13.36
2023-04-21T04:12:44.576Z,13.35
2023-04-21T04:15:11.759Z,13.33
2023-04-21T04:17:38.656Z,13.34
2023-04-21T04:20:08.245Z,13.36
2023-04-21T04:22:35.370Z,13.37
2023-04-21T04:25:02.662Z,13.41
2023-04-21T04:27:29.714Z,13.43
2023-04-21T04:29:57.908Z,13.45
2023-04-21T04:32:28.249Z,13.46
2023-04-21T04:34:58.779Z,13.48
2023-04-21T04:37:25.664Z,13.49
2023-04-21T04:39:53.927Z,13.50
2023-04-21T04:42:20.967Z,13.52
2023-04-21T04:44:48.043Z,13.53
2023-04-21T04:47:16.316Z,13.54
2023-04-21T04:49:43.389Z,13.57
2023-04-21T04:52:10.408Z,13.61
2023-04-21T04:54:37.322Z,13.62
2023-04-21T04:57:04.440Z,13.66
2023-04-21T04:59:31.477Z,13.68
2023-04-21T05:01:58.514Z,13.71
2023-04-21T05:04:27.376Z,13.73
2023-04-21T05:06:54.706Z,13.73
2023-04-21T05:09:21.752Z,13.73
2023-04-21T05:11:48.838Z,13.72
2023-04-21T05:14:16.059Z,13.72
2023-04-21T05:16:43.750Z,13.71
2023-04-21T05:19:10.776Z,13.75
2023-04-21T05:21:38.945Z,13.77
2023-04-21T05:24:06.072Z,13.83
2023-04-21T05:26:33.012Z,13.88
2023-04-21T05:28:59.988Z,13.92
2023-04-21T05:31:27.353Z,13.96
2023-04-21T05:33:54.360Z,14.01
2023-04-21T05:36:21.284Z,14.03
2023-04-21T05:38:49.555Z,14.05
2023-04-21T05:41:16.448Z,14.10
2023-04-21T05:43:43.611Z,14.12
2023-04-21T05:46:11.501Z,14.14
2023-04-21T05:48:38.625Z,14.18
2023-04-21T05:51:10.360Z,14.23
2023-04-21T05:53:37.541Z,14.26
2023-04-21T05:56:08.694Z,14.34
2023-04-21T05:58:36.013Z,14.41
2023-04-21T06:01:03.322Z,14.48
2023-04-21T06:03:32.007Z,14.53
2023-04-21T06:06:01.278Z,14.56
2023-04-21T06:08:28.217Z,14.60
2023-04-21T06:10:55.466Z,14.66
2023-04-21T06:13:23.885Z,14.69
2023-04-21T06:15:50.791Z,14.75
2023-04-21T06:18:17.777Z,14.78
2023-04-21T06:20:50.866Z,14.84
2023-04-21T06:23:18.152Z,14.88
2023-04-21T06:25:45.371Z,14.96
2023-04-21T06:28:12.721Z,15.06
2023-04-21T06:30:41.077Z,15.18
2023-04-21T06:33:08.084Z,15.25
2023-04-21T06:35:35.071Z,15.31
2023-04-21T06:38:02.472Z,15.41
2023-04-21T06:40:29.391Z,15.50
2023-04-21T06:42:56.288Z,15.58
2023-04-21T06:45:23.524Z,15.68
2023-04-21T06:47:51.802Z,15.75
2023-04-21T06:50:18.904Z,15.83
2023-04-21T06:52:45.782Z,15.87
2023-04-21T06:55:12.898Z,15.96
2023-04-21T06:57:39.800Z,16.02
2023-04-21T07:00:08.473Z,16.13
2023-04-21T07:02:35.726Z,16.22
2023-04-21T07:05:04.766Z,16.34
2023-04-21T07:07:31.698Z,16.42
2023-04-21T07:09:58.658Z,16.50
2023-04-21T07:12:25.692Z,16.60
2023-04-21T07:14:52.589Z,16.71
2023-04-21T07:17:19.480Z,16.84
2023-04-21T07:19:46.401Z,16.94
2023-04-21T07:22:14.757Z,17.02
2023-04-21T07:24:41.656Z,17.12
2023-04-21T07:27:08.547Z,17.28
2023-04-21T07:29:35.552Z,17.73
2023-04-21T07:32:02.544Z,18.40
2023-04-21T07:34:29.431Z,19.17
2023-04-21T07:36:56.917Z,19.88
2023-04-21T07:39:25.178Z,20.66
2023-04-21T07:41:52.087Z,21.43
2023-04-21T07:44:18.976Z,22.15
2023-04-21T07:46:46.336Z,22.86
2023-04-21T07:49:13.891Z,23.58
2023-04-21T07:51:41.370Z,24.02
2023-04-21T07:54:08.328Z,24.59
2023-04-21T07:56:36.570Z,25.17
2023-04-21T07:59:03.567Z,25.91
2023-04-21T08:01:30.654Z,26.52
2023-04-21T08:03:57.657Z,27.26
2023-04-21T08:06:24.891Z,27.78
2023-04-21T08:08:57.544Z,28.25
2023-04-21T08:11:28.522Z,28.69
2023-04-21T08:14:00.107Z,29.01
2023-04-21T08:16:27.163Z,29.31
2023-04-21T08:18:54.233Z,29.50
2023-04-21T08:21:21.254Z,29.83
2023-04-21T08:23:48.162Z,30.35
2023-04-21T08:26:15.585Z,30.86
2023-04-21T08:28:42.518Z,31.28
2023-04-21T08:31:11.025Z,31.67
2023-04-21T08:33:49.905Z,31.90
2023-04-21T08:36:29.542Z,32.15
2023-04-21T08:39:04.071Z,32.48
2023-04-21T08:41:31.585Z,32.69
2023-04-21T08:43:59.658Z,32.69
2023-04-21T08:46:32.389Z,32.69
2023-04-21T08:49:00.210Z,32.82
2023-04-21T08:51:28.684Z,33.01
2023-04-21T08:53:55.918Z,33.27
2023-04-21T08:56:26.198Z,33.40
2023-04-21T08:58:53.967Z,33.47
2023-04-21T09:01:21.429Z,33.62
2023-04-21T09:03:49.913Z,33.81
2023-04-21T09:06:20.646Z,34.01
2023-04-21T09:08:57.713Z,34.18
2023-04-21T09:11:54.765Z,34.14
2023-04-21T09:14:21.862Z,34.29
2023-04-21T09:17:01.154Z,34.78
2023-04-21T09:19:30.592Z,35.14
2023-04-21T09:22:00.429Z,35.39
2023-04-21T09:24:27.867Z,35.49
2023-04-21T09:26:55.225Z,35.24
2023-04-21T09:29:23.984Z,35.26
2023-04-21T09:31:52.678Z,35.41
2023-04-21T09:34:24.735Z,35.62
2023-04-21T09:37:02.517Z,35.92
2023-04-21T09:39:43.087Z,36.03
2023-04-21T09:42:13.849Z,36.13
2023-04-21T09:44:53.298Z,36.41
2023-04-21T09:47:27.274Z,36.68
2023-04-21T09:49:56.273Z,37.05
2023-04-21T09:52:28.895Z,37.37
2023-04-21T09:55:04.433Z,37.78
2023-04-21T09:57:37.656Z,38.21
2023-04-21T10:00:09.668Z,38.34
2023-04-21T10:02:45.126Z,38.42
2023-04-21T10:05:12.908Z,37.92
2023-04-21T10:07:41.512Z,38.03
2023-04-21T10:10:18.857Z,38.24
2023-04-21T10:12:46.372Z,38.48
2023-04-21T10:15:31.584Z,38.89
2023-04-21T10:18:17.047Z,39.13
2023-04-21T10:20:56.083Z,39.05
2023-04-21T10:23:30.409Z,38.92
2023-04-21T10:26:12.809Z,38.89
2023-04-21T10:28:47.314Z,38.76
2023-04-21T10:31:20.313Z,38.76
2023-04-21T10:34:13.327Z,39.05
2023-04-21T10:36:51.722Z,39.27
2023-04-21T10:39:35.699Z,39.50
2023-04-21T10:42:37.040Z,39.38
2023-04-21T10:45:12.102Z,39.38
2023-04-21T10:47:49.695Z,39.44
2023-04-21T10:50:23.874Z,39.12
2023-04-21T10:52:59.156Z,38.68
2023-04-21T10:55:29.976Z,38.00
2023-04-21T10:57:59.080Z,37.61
2023-04-21T11:00:26.330Z,37.26
2023-04-21T11:03:00.230Z,37.07
2023-04-21T11:05:30.174Z,37.10
2023-04-21T11:08:12.750Z,37.16
2023-04-21T11:10:59.017Z,37.21
2023-04-21T11:13:33.364Z,37.11
2023-04-21T11:16:04.854Z,36.86
2023-04-21T11:18:41.294Z,36.41
2023-04-21T11:21:22.430Z,35.83
2023-04-21T11:23:54.692Z,35.08
2023-04-21T11:26:34.440Z,33.97
2023-04-21T11:29:07.291Z,33.02
2023-04-21T11:31:36.222Z,32.39
2023-04-21T11:34:06.899Z,32.16
2023-04-21T11:36:34.515Z,32.18
2023-04-21T11:39:08.066Z,32.47
2023-04-21T11:41:49.066Z,32.83
2023-04-21T11:44:33.405Z,32.73
2023-04-21T11:47:00.907Z,32.54
2023-04-21T11:49:29.463Z,32.34
2023-04-21T11:51:56.659Z,32.04
2023-04-21T11:54:24.360Z,31.51
2023-04-21T11:56:55.090Z,31.16
2023-04-21T11:59:26.505Z,30.69
2023-04-21T12:01:54.979Z,30.18
2023-04-21T12:04:23.749Z,29.93
2023-04-21T12:06:59.011Z,29.85
2023-04-21T12:09:28.183Z,29.52
2023-04-21T12:11:58.896Z,29.61
2023-04-21T12:14:29.344Z,30.02
2023-04-21T12:16:58.783Z,30.69
2023-04-21T12:19:37.927Z,31.35
2023-04-21T12:22:08.401Z,31.77
2023-04-21T12:24:36.827Z,31.91
2023-04-21T12:27:06.440Z,31.72
2023-04-21T12:29:38.341Z,31.58
2023-04-21T12:32:06.375Z,31.59
2023-04-21T12:34:34.273Z,31.90
2023-04-21T12:37:02.036Z,31.87
2023-04-21T12:39:30.118Z,32.09
2023-04-21T12:41:57.709Z,32.53
2023-04-21T12:44:26.499Z,32.82
2023-04-21T12:46:54.208Z,32.67
2023-04-21T12:49:21.126Z,32.26
2023-04-21T12:51:49.474Z,32.25
2023-04-21T12:54:17.611Z,32.18
2023-04-21T12:56:44.736Z,31.76
2023-04-21T12:59:12.000Z,32.14
2023-04-21T13:01:42.509Z,32.08
2023-04-21T13:04:10.162Z,31.75
2023-04-21T13:06:39.293Z,31.39
2023-04-21T13:09:06.302Z,31.16
2023-04-21T13:11:33.389Z,31.06
2023-04-21T13:14:00.562Z,30.56
2023-04-21T13:16:30.082Z,30.38
2023-04-21T13:18:59.001Z,30.87
2023-04-21T13:21:26.349Z,31.14
2023-04-21T13:23:53.391Z,31.49
2023-04-21T13:26:21.015Z,31.69
2023-04-21T13:28:48.271Z,31.75
2023-04-21T13:31:15.354Z,31.67
2023-04-21T13:33:42.461Z,31.76
2023-04-21T13:36:12.845Z,31.77
2023-04-21T13:38:40.766Z,31.93
2023-04-21T13:41:08.479Z,32.05
2023-04-21T13:43:35.695Z,32.16
2023-04-21T13:46:02.934Z,32.22
2023-04-21T13:48:30.050Z,32.15
2023-04-21T13:50:57.058Z,32.45
2023-04-21T13:53:25.479Z,32.33
2023-04-21T13:55:54.554Z,32.64
2023-04-21T13:58:22.053Z,32.93
2023-04-21T14:00:49.232Z,33.22
2023-04-21T14:03:16.687Z,33.35
2023-04-21T14:05:44.177Z,33.55
2023-04-21T14:08:11.464Z,33.61
2023-04-21T14:10:39.986Z,33.22
2023-04-21T14:13:07.056Z,32.91
2023-04-21T14:15:34.121Z,32.71
2023-04-21T14:18:01.293Z,32.61
2023-04-21T14:20:28.562Z,32.19
2023-04-21T14:22:55.620Z,31.49
2023-04-21T14:25:22.644Z,31.60
2023-04-21T14:27:50.953Z,31.89
2023-04-21T14:30:18.042Z,32.23
2023-04-21T14:32:47.663Z,32.40
2023-04-21T14:35:18.117Z,32.51
2023-04-21T14:37:45.200Z,32.31
2023-04-21T14:40:12.201Z,32.12
2023-04-21T14:42:39.111Z,32.28
2023-04-21T14:45:09.820Z,32.48
2023-04-21T14:47:37.955Z,32.78
2023-04-21T14:50:07.167Z,32.66
2023-04-21T14:52:34.459Z,32.53
2023-04-21T14:55:01.502Z,32.69
2023-04-21T14:57:28.480Z,32.58
2023-04-21T14:59:55.934Z,32.43
2023-04-21T15:02:24.566Z,32.33
2023-04-21T15:04:51.871Z,32.12
2023-04-21T15:07:23.902Z,31.93
2023-04-21T15:09:52.113Z,31.94
2023-04-21T15:12:19.260Z,31.91
2023-04-21T15:14:46.318Z,31.57
2023-04-21T15:17:13.544Z,31.47
2023-04-21T15:19:42.106Z,31.22
2023-04-21T15:22:09.259Z,30.61
2023-04-21T15:24:36.223Z,30.22
2023-04-21T15:27:07.167Z,29.94
2023-04-21T15:29:37.550Z,29.73
2023-04-21T15:32:04.932Z,29.79
2023-04-21T15:34:31.936Z,29.96
2023-04-21T15:37:00.327Z,29.94
2023-04-21T15:39:27.288Z,30.10
2023-04-21T15:41:55.078Z,30.16
2023-04-21T15:44:22.353Z,30.08
2023-04-21T15:46:50.533Z,29.94
2023-04-21T15:49:18.072Z,29.80
2023-04-21T15:51:46.117Z,29.63
2023-04-21T15:54:14.558Z,29.38
2023-04-21T15:56:41.493Z,29.21
2023-04-21T15:59:08.619Z,28.96
2023-04-21T16:01:36.001Z,28.82
2023-04-21T16:04:03.431Z,28.85
2023-04-21T16:06:31.244Z,28.99
2023-04-21T16:08:58.341Z,28.92
2023-04-21T16:11:28.035Z,28.82
2023-04-21T16:13:55.545Z,28.78
2023-04-21T16:16:22.720Z,28.58
2023-04-21T16:18:49.641Z,28.53
2023-04-21T16:21:16.673Z,28.62
2023-04-21T16:23:43.771Z,28.72
2023-04-21T16:26:10.736Z,28.81
2023-04-21T16:28:39.075Z,28.90
2023-04-21T16:31:06.275Z,28.96
2023-04-21T16:33:33.309Z,28.96
2023-04-21T16:36:00.389Z,28.97
2023-04-21T16:38:27.329Z,28.99
2023-04-21T16:40:54.312Z,28.89
2023-04-21T16:43:21.261Z,28.87
2023-04-21T16:45:49.607Z,28.75
2023-04-21T16:48:16.646Z,28.66
2023-04-21T16:50:45.131Z,28.47
2023-04-21T16:53:12.207Z,28.30
2023-04-21T16:55:39.536Z,28.15
2023-04-21T16:58:06.471Z,28.08
2023-04-21T17:00:33.542Z,28.03
2023-04-21T17:03:01.950Z,28.00
2023-04-21T17:05:28.998Z,27.92
2023-04-21T17:07:56.126Z,27.81
2023-04-21T17:10:23.154Z,27.75
2023-04-21T17:12:50.052Z,27.68
2023-04-21T17:15:17.147Z,27.58
2023-04-21T17:17:44.818Z,27.50
2023-04-21T17:20:14.408Z,27.35
2023-04-21T17:22:42.903Z,27.28
2023-04-21T17:25:11.193Z,27.19
2023-04-21T17:27:38.806Z,27.06
2023-04-21T17:30:08.933Z,26.93
2023-04-21T17:32:36.502Z,26.77
2023-04-21T17:35:05.634Z,26.68
2023-04-21T17:37:34.501Z,26.58
2023-04-21T17:40:02.891Z,26.47
2023-04-21T17:42:31.027Z,26.34
2023-04-21T17:44:57.935Z,26.22
2023-04-21T17:47:24.932Z,26.10
2023-04-21T17:49:52.075Z,25.96
2023-04-21T17:52:19.360Z,25.84
2023-04-21T17:54:47.690Z,25.73
2023-04-21T17:57:14.669Z,25.61
2023-04-21T17:59:41.974Z,25.47
2023-04-21T18:02:09.118Z,25.37
2023-04-21T18:04:36.867Z,25.25
2023-04-21T18:07:15.311Z,25.16
2023-04-21T18:09:49.831Z,25.08
2023-04-21T18:12:19.876Z,25.02
2023-04-21T18:14:46.813Z,24.92
2023-04-21T18:17:15.955Z,24.81
2023-04-21T18:19:44.212Z,24.74
2023-04-21T18:22:11.995Z,24.66
2023-04-21T18:24:39.899Z,24.60
2023-04-21T18:27:07.399Z,24.50
2023-04-21T18:29:37.280Z,24.42
2023-04-21T18:32:26.151Z,24.30
2023-04-21T18:34:56.349Z,24.21
2023-04-21T18:37:23.298Z,24.15
2023-04-21T18:39:50.202Z,24.09
2023-04-21T18:42:19.640Z,24.00
2023-04-21T18:44:48.223Z,23.95
2023-04-21T18:47:15.574Z,23.87
2023-04-21T18:49:42.640Z,23.79
2023-04-21T18:52:09.698Z,23.72
2023-04-21T18:54:36.968Z,23.64
2023-04-21T18:57:04.553Z,23.57
2023-04-21T18:59:31.892Z,23.51
2023-04-21T19:02:01.149Z,23.44
2023-04-21T19:04:28.252Z,23.37
2023-04-21T19:06:55.348Z,23.30
2023-04-21T19:09:22.767Z,23.23
2023-04-21T19:11:49.834Z,23.18
2023-04-21T19:14:16.732Z,23.12
2023-04-21T19:16:43.661Z,23.08
2023-04-21T19:19:12.226Z,22.99
2023-04-21T19:21:39.417Z,22.93
2023-04-21T19:24:06.808Z,22.87
2023-04-21T19:26:34.486Z,22.77
2023-04-21T19:29:01.876Z,22.68
2023-04-21T19:31:29.368Z,22.61
2023-04-21T19:33:56.576Z,22.53
2023-04-21T19:36:25.215Z,22.47
2023-04-21T19:38:52.550Z,22.42
2023-04-21T19:41:19.837Z,22.38
2023-04-21T19:43:47.103Z,22.35
2023-04-21T19:46:14.166Z,22.32
2023-04-21T19:48:42.714Z,22.28
2023-04-21T19:51:09.739Z,22.23
2023-04-21T19:53:37.972Z,22.21
2023-04-21T19:56:05.364Z,22.18
2023-04-21T19:58:40.438Z,22.14
2023-04-21T20:01:08.221Z,22.10
2023-04-21T20:03:35.451Z,22.05
2023-04-21T20:06:04.696Z,22.04
2023-04-21T20:08:31.813Z,22.00
2023-04-21T20:11:00.118Z,21.97
2023-04-21T20:13:27.148Z,21.92
2023-04-21T20:15:55.246Z,21.89
2023-04-21T20:18:22.177Z,21.84
2023-04-21T20:20:49.081Z,21.78
2023-04-21T20:23:16.377Z,21.72
2023-04-21T20:25:43.343Z,21.68
2023-04-21T20:28:11.832Z,21.64
2023-04-21T20:30:38.815Z,21.59
2023-04-21T20:33:05.802Z,21.57
2023-04-21T20:35:39.127Z,21.52
2023-04-21T20:38:07.860Z,21.46
2023-04-21T20:40:36.190Z,21.42
2023-04-21T20:43:06.205Z,21.38
2023-04-21T20:45:34.959Z,21.34
2023-04-21T20:48:01.884Z,21.29
2023-04-21T20:50:28.863Z,21.27
2023-04-21T20:52:56.632Z,21.24
2023-04-21T20:55:23.561Z,21.23
2023-04-21T20:57:51.022Z,21.20
2023-04-21T21:00:18.833Z,21.18
2023-04-21T21:02:47.324Z,21.15
2023-04-21T21:05:14.368Z,21.13
2023-04-21T21:07:41.356Z,21.11
2023-04-21T21:10:11.178Z,21.13
2023-04-21T21:12:38.227Z,21.09
2023-04-21T21:15:06.572Z,21.07
2023-04-21T21:17:33.830Z,21.04
2023-04-21T21:20:02.123Z,21.02
2023-04-21T21:22:29.064Z,20.98
2023-04-21T21:24:56.027Z,20.96
2023-04-21T21:27:23.679Z,20.94
2023-04-21T21:29:50.712Z,20.90
2023-04-21T21:32:17.771Z,20.86
2023-04-21T21:34:44.740Z,20.82
2023-04-21T21:37:13.014Z,20.75
2023-04-21T21:39:40.096Z,20.68
2023-04-21T21:42:07.118Z,20.63
2023-04-21T21:44:34.021Z,20.58
2023-04-21T21:47:01.218Z,20.50
2023-04-21T21:49:28.208Z,20.45
2023-04-21T21:51:55.274Z,20.39
2023-04-21T21:54:23.541Z,20.36
2023-04-21T21:56:50.585Z,20.32
2023-04-21T21:59:17.567Z,20.24
2023-04-21T22:01:44.711Z,20.18
2023-04-21T22:04:11.781Z,20.16
2023-04-21T22:06:39.061Z,20.07
2023-04-21T22:09:06.112Z,20.02
2023-04-21T22:11:34.638Z,19.96
2023-04-21T22:14:14.516Z,19.93
2023-04-21T22:16:48.585Z,19.87
2023-04-21T22:19:17.545Z,19.86
2023-04-21T22:21:44.518Z,19.83
2023-04-21T22:24:11.518Z,19.77
2023-04-21T22:26:39.930Z,19.72
2023-04-21T22:29:06.928Z,19.67
2023-04-21T22:31:34.036Z,19.66
2023-04-21T22:34:01.155Z,19.64
2023-04-21T22:36:28.213Z,19.63
2023-04-21T22:38:55.246Z,19.61
2023-04-21T22:41:22.407Z,19.59
2023-04-21T22:43:51.578Z,19.57
2023-04-21T22:46:19.090Z,19.52
2023-04-21T22:48:46.711Z,19.49
2023-04-21T22:51:14.359Z,19.47
2023-04-21T22:53:41.277Z,19.43
2023-04-21T22:56:08.270Z,19.39
2023-04-21T22:58:35.751Z,19.36
2023-04-21T23:01:04.087Z,19.33
2023-04-21T23:03:31.382Z,19.28
2023-04-21T23:05:58.902Z,19.26
2023-04-21T23:08:26.208Z,19.22
2023-04-21T23:10:53.235Z,19.21
2023-04-21T23:13:20.490Z,19.16
2023-04-21T23:15:47.357Z,19.14
2023-04-21T23:18:15.751Z,19.12
2023-04-21T23:20:42.716Z,19.11
2023-04-21T23:23:09.690Z,19.08
2023-04-21T23:25:36.635Z,19.06
2023-04-21T23:28:03.583Z,19.04
2023-04-21T23:30:30.579Z,19.03
2023-04-21T23:32:57.651Z,19.01
2023-04-21T23:35:26.168Z,18.99
2023-04-21T23:37:53.060Z,18.97
2023-04-21T23:40:20.174Z,18.93
2023-04-21T23:42:47.756Z,18.91
2023-04-21T23:45:15.522Z,18.88
2023-04-21T23:47:42.586Z,18.87
2023-04-21T23:50:11.025Z,18.85
2023-04-21T23:52:41.925Z,18.84
2023-04-21T23:55:11.873Z,18.81
2023-04-21T23:57:38.899Z,18.81
